Terminal Aerodrome Forecast
Issued by NWS

Home | Current Version | Previous Version | Text Only | Print | Product List | Glossary On
Versions: 1 2 3 4 5 6 7 8 9 10 11 12 13 14 15 16 17 18 19 20 21 22 23 24 25 26 27 28 29 30
000
FTUS43 KDTX 282006 AAA
TAFPTK
TAF AMD
KPTK 282006Z 2820/2918 20009KT 5SM -SN BKN030 OVC050
      TEMPO 2820/2822 2SM -SN BKN015 OVC025
     FM282300 19008KT P6SM -SN BKN035 OVC070
     FM290400 17008KT 2SM -SN BKN028 OVC040
     FM290900 15008KT P6SM BKN045 OVC090
     FM291300 19010KT P6SM BKN100=

USA.gov is the U.S. government's official web portal to all federal, state and local government web resources and services.